sensor_id;sensor_type;location;lat;lon;timestamp;pressure;altitude;pressure_sealevel;temperature;humidity
33422;BME280;19763;55.798;37.782;2023-05-23T00:02:20;150863.44;;;14.23;86.68
33422;BME280;19763;55.798;37.782;2023-05-23T00:04:45;150845.44;;;14.16;86.34
33422;BME280;19763;55.798;37.782;2023-05-23T00:07:11;150833.88;;;14.11;85.83
33422;BME280;19763;55.798;37.782;2023-05-23T00:09:37;150822.31;;;14.07;86.43
33422;BME280;19763;55.798;37.782;2023-05-23T00:12:02;150827.44;;;14.09;86.69
33422;BME280;19763;55.798;37.782;2023-05-23T00:14:28;150823.59;;;14.07;86.04
33422;BME280;19763;55.798;37.782;2023-05-23T00:16:58;150823.59;;;14.07;86.29
33422;BME280;19763;55.798;37.782;2023-05-23T00:19:24;150806.84;;;14.01;86.84
33422;BME280;19763;55.798;37.782;2023-05-23T00:21:50;150790.19;;;13.94;86.81
33422;BME280;19763;55.798;37.782;2023-05-23T00:24:18;150803.00;;;13.99;86.47
33422;BME280;19763;55.798;37.782;2023-05-23T00:26:45;150799.16;;;13.97;87.09
33422;BME280;19763;55.798;37.782;2023-05-23T00:29:11;150800.47;;;13.98;87.66
33422;BME280;19763;55.798;37.782;2023-05-23T00:31:43;150742.56;;;13.75;86.71
33422;BME280;19763;55.798;37.782;2023-05-23T00:34:13;150788.84;;;13.93;86.23
33422;BME280;19763;55.798;37.782;2023-05-23T00:36:39;150777.28;;;13.89;86.70
33422;BME280;19763;55.798;37.782;2023-05-23T00:39:06;150779.88;;;13.90;86.37
33422;BME280;19763;55.798;37.782;2023-05-23T00:41:33;150768.28;;;13.85;86.58
33422;BME280;19763;55.798;37.782;2023-05-23T00:43:58;150769.59;;;13.86;86.22
33422;BME280;19763;55.798;37.782;2023-05-23T00:46:25;150764.41;;;13.84;86.50
33422;BME280;19763;55.798;37.782;2023-05-23T00:48:52;150763.16;;;13.83;86.91
33422;BME280;19763;55.798;37.782;2023-05-23T00:51:19;150763.16;;;13.83;86.54
33422;BME280;19763;55.798;37.782;2023-05-23T00:53:45;150751.59;;;13.78;86.30
33422;BME280;19763;55.798;37.782;2023-05-23T00:56:11;150741.31;;;13.74;86.84
33422;BME280;19763;55.798;37.782;2023-05-23T00:58:38;150740.03;;;13.74;86.55
33422;BME280;19763;55.798;37.782;2023-05-23T01:01:05;150733.59;;;13.71;87.07
33422;BME280;19763;55.798;37.782;2023-05-23T01:03:31;150740.03;;;13.74;86.59
33422;BME280;19763;55.798;37.782;2023-05-23T01:05:56;150709.16;;;13.61;86.40
33422;BME280;19763;55.798;37.782;2023-05-23T01:08:22;150704.00;;;13.59;86.38
33422;BME280;19763;55.798;37.782;2023-05-23T01:10:48;150716.88;;;13.64;86.28
33422;BME280;19763;55.798;37.782;2023-05-23T01:13:33;150711.75;;;13.62;87.17
33422;BME280;19763;55.798;37.782;2023-05-23T01:16:31;150713.03;;;13.63;87.72
33422;BME280;19763;55.798;37.782;2023-05-23T01:21:54;150719.47;;;13.66;87.23
33422;BME280;19763;55.798;37.782;2023-05-23T01:24:46;150720.72;;;13.66;86.51
33422;BME280;19763;55.798;37.782;2023-05-23T01:29:45;150706.59;;;13.60;86.62
33422;BME280;19763;55.798;37.782;2023-05-23T01:32:14;150711.75;;;13.62;86.18
33422;BME280;19763;55.798;37.782;2023-05-23T01:34:40;150709.16;;;13.61;86.75
33422;BME280;19763;55.798;37.782;2023-05-23T01:37:08;150714.28;;;13.63;86.39
33422;BME280;19763;55.798;37.782;2023-05-23T01:39:35;150714.28;;;13.63;87.62
33422;BME280;19763;55.798;37.782;2023-05-23T01:42:01;150715.63;;;13.64;86.64
33422;BME280;19763;55.798;37.782;2023-05-23T01:44:27;150719.47;;;13.66;86.27
33422;BME280;19763;55.798;37.782;2023-05-23T01:46:53;150732.28;;;13.71;86.37
33422;BME280;19763;55.798;37.782;2023-05-23T01:49:21;150718.16;;;13.65;86.43
33422;BME280;19763;55.798;37.782;2023-05-23T01:51:47;150714.28;;;13.63;86.66
33422;BME280;19763;55.798;37.782;2023-05-23T01:54:14;150715.63;;;13.64;86.24
33422;BME280;19763;55.798;37.782;2023-05-23T01:56:41;150710.44;;;13.62;86.21
33422;BME280;19763;55.798;37.782;2023-05-23T01:59:07;150696.31;;;13.56;87.08
33422;BME280;19763;55.798;37.782;2023-05-23T02:01:33;150705.31;;;13.60;86.91
33422;BME280;19763;55.798;37.782;2023-05-23T02:03:59;150725.91;;;13.68;86.20
33422;BME280;19763;55.798;37.782;2023-05-23T02:06:25;150729.75;;;13.70;86.01
33422;BME280;19763;55.798;37.782;2023-05-23T02:08:51;150675.72;;;13.48;86.52
33422;BME280;19763;55.798;37.782;2023-05-23T02:11:16;150731.03;;;13.70;86.38
33422;BME280;19763;55.798;37.782;2023-05-23T02:13:42;150734.88;;;13.72;86.51
33422;BME280;19763;55.798;37.782;2023-05-23T02:16:07;150742.56;;;13.75;86.12
33422;BME280;19763;55.798;37.782;2023-05-23T02:18:33;150754.13;;;13.79;85.91
33422;BME280;19763;55.798;37.782;2023-05-23T02:21:03;150754.13;;;13.79;86.52
33422;BME280;19763;55.798;37.782;2023-05-23T02:23:29;150765.75;;;13.84;86.47
33422;BME280;19763;55.798;37.782;2023-05-23T02:25:55;150773.44;;;13.87;86.40
33422;BME280;19763;55.798;37.782;2023-05-23T02:28:21;150768.28;;;13.85;86.17
33422;BME280;19763;55.798;37.782;2023-05-23T02:30:47;150782.41;;;13.91;85.44
33422;BME280;19763;55.798;37.782;2023-05-23T02:33:12;150779.88;;;13.90;84.54
33422;BME280;19763;55.798;37.782;2023-05-23T02:35:38;150786.31;;;13.92;86.13
33422;BME280;19763;55.798;37.782;2023-05-23T02:38:04;150797.88;;;13.97;85.93
33422;BME280;19763;55.798;37.782;2023-05-23T02:40:29;150801.72;;;13.98;85.83
33422;BME280;19763;55.798;37.782;2023-05-23T02:42:55;150806.84;;;14.01;86.13
33422;BME280;19763;55.798;37.782;2023-05-23T02:45:22;150814.56;;;14.04;86.11
33422;BME280;19763;55.798;37.782;2023-05-23T02:47:48;150815.88;;;14.04;81.10
33422;BME280;19763;55.798;37.782;2023-05-23T02:50:13;150812.03;;;14.03;76.52
33422;BME280;19763;55.798;37.782;2023-05-23T02:52:40;150797.88;;;13.97;75.88
33422;BME280;19763;55.798;37.782;2023-05-23T02:55:07;150836.47;;;14.12;74.68
33422;BME280;19763;55.798;37.782;2023-05-23T02:57:33;150844.16;;;14.15;74.11
33422;BME280;19763;55.798;37.782;2023-05-23T02:59:58;150859.59;;;14.22;74.53
33422;BME280;19763;55.798;37.782;2023-05-23T03:02:24;150849.28;;;14.18;74.06
33422;BME280;19763;55.798;37.782;2023-05-23T03:04:50;150864.75;;;14.24;73.82
33422;BME280;19763;55.798;37.782;2023-05-23T03:07:15;150884.03;;;14.31;73.64
33422;BME280;19763;55.798;37.782;2023-05-23T03:09:41;150890.47;;;14.34;72.91
33422;BME280;19763;55.798;37.782;2023-05-23T03:12:06;150925.19;;;14.48;73.91
33422;BME280;19763;55.798;37.782;2023-05-23T03:14:32;150939.34;;;14.54;73.43
33422;BME280;19763;55.798;37.782;2023-05-23T03:16:58;150948.34;;;14.57;73.44
33422;BME280;19763;55.798;37.782;2023-05-23T03:19:23;150925.19;;;14.48;72.96
33422;BME280;19763;55.798;37.782;2023-05-23T03:21:49;150914.91;;;14.44;72.61
33422;BME280;19763;55.798;37.782;2023-05-23T03:24:16;150929.06;;;14.49;72.33
33422;BME280;19763;55.798;37.782;2023-05-23T03:26:42;150950.91;;;14.58;73.22
33422;BME280;19763;55.798;37.782;2023-05-23T03:29:07;150979.28;;;14.70;72.91
33422;BME280;19763;55.798;37.782;2023-05-23T03:31:35;150970.25;;;14.66;73.20
33422;BME280;19763;55.798;37.782;2023-05-23T03:34:01;150979.28;;;14.70;71.81
33422;BME280;19763;55.798;37.782;2023-05-23T03:36:27;150999.84;;;14.78;72.49
33422;BME280;19763;55.798;37.782;2023-05-23T03:38:53;150974.09;;;14.67;72.65
33422;BME280;19763;55.798;37.782;2023-05-23T03:41:18;151008.84;;;14.81;71.97
33422;BME280;19763;55.798;37.782;2023-05-23T03:43:44;151025.59;;;14.88;71.30
33422;BME280;19763;55.798;37.782;2023-05-23T03:46:09;151046.19;;;14.96;71.36
33422;BME280;19763;55.798;37.782;2023-05-23T03:48:35;151087.31;;;15.13;71.84
33422;BME280;19763;55.798;37.782;2023-05-23T03:51:01;151064.19;;;15.04;71.58
33422;BME280;19763;55.798;37.782;2023-05-23T03:53:27;151056.44;;;15.00;71.37
33422;BME280;19763;55.798;37.782;2023-05-23T03:55:52;151074.44;;;15.08;71.40
33422;BME280;19763;55.798;37.782;2023-05-23T03:58:19;151071.91;;;15.07;70.98
33422;BME280;19763;55.798;37.782;2023-05-23T04:00:45;151087.31;;;15.13;71.14
33422;BME280;19763;55.798;37.782;2023-05-23T04:03:11;151074.44;;;15.08;71.00
33422;BME280;19763;55.798;37.782;2023-05-23T04:05:39;151098.91;;;15.17;70.96
33422;BME280;19763;55.798;37.782;2023-05-23T04:08:04;151114.38;;;15.24;71.73
33422;BME280;19763;55.798;37.782;2023-05-23T04:10:31;151093.75;;;15.15;71.11
33422;BME280;19763;55.798;37.782;2023-05-23T04:12:56;151116.91;;;15.25;70.44
33422;BME280;19763;55.798;37.782;2023-05-23T04:15:23;151149.09;;;15.38;70.99
33422;BME280;19763;55.798;37.782;2023-05-23T04:17:49;151146.53;;;15.36;71.48
33422;BME280;19763;55.798;37.782;2023-05-23T04:20:16;151165.81;;;15.44;71.56
33422;BME280;19763;55.798;37.782;2023-05-23T04:22:41;151150.41;;;15.38;71.14
33422;BME280;19763;55.798;37.782;2023-05-23T04:25:07;151125.94;;;15.28;70.05
33422;BME280;19763;55.798;37.782;2023-05-23T04:27:34;151154.25;;;15.40;70.05
33422;BME280;19763;55.798;37.782;2023-05-23T04:29:59;151178.72;;;15.49;70.25
33422;BME280;19763;55.798;37.782;2023-05-23T04:32:25;151183.84;;;15.51;69.71
33422;BME280;19763;55.798;37.782;2023-05-23T04:34:51;151205.72;;;15.60;69.82
33422;BME280;19763;55.798;37.782;2023-05-23T04:37:18;151218.59;;;15.65;70.45
33422;BME280;19763;55.798;37.782;2023-05-23T04:39:47;151225.06;;;15.68;69.62
33422;BME280;19763;55.798;37.782;2023-05-23T04:42:12;151263.72;;;15.83;69.66
33422;BME280;19763;55.798;37.782;2023-05-23T04:44:38;151244.34;;;15.76;70.03
33422;BME280;19763;55.798;37.782;2023-05-23T04:47:04;151234.03;;;15.71;68.97
33422;BME280;19763;55.798;37.782;2023-05-23T04:49:30;151244.34;;;15.76;68.59
33422;BME280;19763;55.798;37.782;2023-05-23T04:51:58;151245.66;;;15.76;68.82
33422;BME280;19763;55.798;37.782;2023-05-23T04:54:23;151243.06;;;15.75;69.13
33422;BME280;19763;55.798;37.782;2023-05-23T04:56:49;151248.22;;;15.77;70.06
33422;BME280;19763;55.798;37.782;2023-05-23T04:59:15;151244.34;;;15.76;69.78
33422;BME280;19763;55.798;37.782;2023-05-23T05:01:41;151250.78;;;15.78;69.96
33422;BME280;19763;55.798;37.782;2023-05-23T05:04:06;151244.34;;;15.76;70.01
33422;BME280;19763;55.798;37.782;2023-05-23T05:06:32;151232.78;;;15.71;69.63
33422;BME280;19763;55.798;37.782;2023-05-23T05:08:58;151223.75;;;15.67;70.72
33422;BME280;19763;55.798;37.782;2023-05-23T05:11:25;151236.63;;;15.73;70.28
33422;BME280;19763;55.798;37.782;2023-05-23T05:13:51;151195.41;;;15.56;71.42
33422;BME280;19763;55.798;37.782;2023-05-23T05:16:17;151195.41;;;15.56;71.28
33422;BME280;19763;55.798;37.782;2023-05-23T05:18:42;151169.69;;;15.46;72.00
33422;BME280;19763;55.798;37.782;2023-05-23T05:21:08;151216.03;;;15.64;72.36
33422;BME280;19763;55.798;37.782;2023-05-23T05:23:34;151243.06;;;15.75;71.81
33422;BME280;19763;55.798;37.782;2023-05-23T05:26:00;151277.91;;;15.89;71.81
33422;BME280;19763;55.798;37.782;2023-05-23T05:28:26;151306.22;;;16.00;71.53
33422;BME280;19763;55.798;37.782;2023-05-23T05:30:51;151288.16;;;15.93;71.39
33422;BME280;19763;55.798;37.782;2023-05-23T05:33:20;151295.91;;;15.96;71.43
33422;BME280;19763;55.798;37.782;2023-05-23T05:35:49;151313.94;;;16.03;70.97
33422;BME280;19763;55.798;37.782;2023-05-23T05:38:18;151262.41;;;15.83;70.59
33422;BME280;19763;55.798;37.782;2023-05-23T05:40:43;151307.50;;;16.01;71.01
33422;BME280;19763;55.798;37.782;2023-05-23T05:43:09;151319.06;;;16.05;71.05
33422;BME280;19763;55.798;37.782;2023-05-23T05:45:35;151361.56;;;16.22;70.42
33422;BME280;19763;55.798;37.782;2023-05-23T05:48:01;151313.94;;;16.03;71.04
33422;BME280;19763;55.798;37.782;2023-05-23T05:50:27;151369.28;;;16.26;70.97
33422;BME280;19763;55.798;37.782;2023-05-23T05:52:53;151393.78;;;16.35;71.47
33422;BME280;19763;55.798;37.782;2023-05-23T05:55:18;151401.50;;;16.38;70.08
33422;BME280;19763;55.798;37.782;2023-05-23T05:57:45;151450.44;;;16.58;70.21
33422;BME280;19763;55.798;37.782;2023-05-23T06:00:13;151424.69;;;16.48;70.50
33422;BME280;19763;55.798;37.782;2023-05-23T06:02:43;151445.31;;;16.56;70.72
33422;BME280;19763;55.798;37.782;2023-05-23T06:05:11;151451.72;;;16.59;70.45
33422;BME280;19763;55.798;37.782;2023-05-23T06:07:38;151476.19;;;16.68;69.91
33422;BME280;19763;55.798;37.782;2023-05-23T06:10:04;151440.13;;;16.54;69.73
33422;BME280;19763;55.798;37.782;2023-05-23T06:12:29;151438.88;;;16.53;70.73
33422;BME280;19763;55.798;37.782;2023-05-23T06:14:55;151460.75;;;16.62;70.28
33422;BME280;19763;55.798;37.782;2023-05-23T06:17:21;151495.56;;;16.76;70.31
33422;BME280;19763;55.798;37.782;2023-05-23T06:19:46;151501.97;;;16.79;70.07
33422;BME280;19763;55.798;37.782;2023-05-23T06:22:12;151489.09;;;16.73;69.56
33422;BME280;19763;55.798;37.782;2023-05-23T06:24:38;151490.38;;;16.74;70.48
33422;BME280;19763;55.798;37.782;2023-05-23T06:27:04;151521.31;;;16.86;70.20
33422;BME280;19763;55.798;37.782;2023-05-23T06:29:29;151505.88;;;16.80;70.11
33422;BME280;19763;55.798;37.782;2023-05-23T06:31:56;151501.97;;;16.79;70.08
33422;BME280;19763;55.798;37.782;2023-05-23T06:34:22;151507.13;;;16.81;70.17
33422;BME280;19763;55.798;37.782;2023-05-23T06:36:47;151535.53;;;16.92;70.20
33422;BME280;19763;55.798;37.782;2023-05-23T06:39:14;151530.34;;;16.90;70.29
33422;BME280;19763;55.798;37.782;2023-05-23T06:41:39;151583.19;;;17.11;69.88
33422;BME280;19763;55.798;37.782;2023-05-23T06:44:05;151566.44;;;17.04;69.21
33422;BME280;19763;55.798;37.782;2023-05-23T06:46:31;151585.78;;;17.12;69.13
33422;BME280;19763;55.798;37.782;2023-05-23T06:48:57;151633.44;;;17.31;69.71
33422;BME280;19763;55.798;37.782;2023-05-23T06:51:22;151661.81;;;17.42;69.03
33422;BME280;19763;55.798;37.782;2023-05-23T06:53:48;151673.41;;;17.47;68.83
33422;BME280;19763;55.798;37.782;2023-05-23T06:56:14;151703.06;;;17.59;67.88
33422;BME280;19763;55.798;37.782;2023-05-23T06:58:39;151732.72;;;17.71;67.59
33422;BME280;19763;55.798;37.782;2023-05-23T07:01:05;151768.81;;;17.85;67.81
33422;BME280;19763;55.798;37.782;2023-05-23T07:03:31;151793.34;;;17.95;67.01
33422;BME280;19763;55.798;37.782;2023-05-23T07:05:57;151798.53;;;17.97;66.66
33422;BME280;19763;55.798;37.782;2023-05-23T07:08:23;151821.72;;;18.06;66.46
33422;BME280;19763;55.798;37.782;2023-05-23T07:10:49;151826.88;;;18.08;66.11
33422;BME280;19763;55.798;37.782;2023-05-23T07:13:15;151828.19;;;18.09;67.13
33422;BME280;19763;55.798;37.782;2023-05-23T07:15:40;151868.16;;;18.25;67.18
33422;BME280;19763;55.798;37.782;2023-05-23T07:18:06;151881.06;;;18.30;66.81
33422;BME280;19763;55.798;37.782;2023-05-23T07:20:32;151881.06;;;18.30;66.43
33422;BME280;19763;55.798;37.782;2023-05-23T07:22:58;151811.41;;;18.02;67.14
33422;BME280;19763;55.798;37.782;2023-05-23T07:25:25;151855.25;;;18.20;67.35
33422;BME280;19763;55.798;37.782;2023-05-23T07:27:51;151868.16;;;18.25;67.24
33422;BME280;19763;55.798;37.782;2023-05-23T07:30:19;151868.16;;;18.25;67.51
33422;BME280;19763;55.798;37.782;2023-05-23T07:32:47;151816.59;;;18.04;66.85
33422;BME280;19763;55.798;37.782;2023-05-23T07:35:16;151863.00;;;18.23;68.22
33422;BME280;19763;55.798;37.782;2023-05-23T07:37:42;151921.03;;;18.46;68.09
33422;BME280;19763;55.798;37.782;2023-05-23T07:40:07;151931.38;;;18.50;67.75
33422;BME280;19763;55.798;37.782;2023-05-23T07:42:33;151904.25;;;18.39;68.13
33422;BME280;19763;55.798;37.782;2023-05-23T07:44:59;152003.59;;;18.79;67.81
33422;BME280;19763;55.798;37.782;2023-05-23T07:47:25;151937.81;;;18.53;67.27
33422;BME280;19763;55.798;37.782;2023-05-23T07:49:52;151970.06;;;18.66;67.75
33422;BME280;19763;55.798;37.782;2023-05-23T07:52:17;152030.75;;;18.90;67.63
33422;BME280;19763;55.798;37.782;2023-05-23T07:54:43;152004.88;;;18.79;67.62
33422;BME280;19763;55.798;37.782;2023-05-23T07:57:09;152029.44;;;18.89;67.93
33422;BME280;19763;55.798;37.782;2023-05-23T07:59:35;152057.81;;;19.01;67.25
33422;BME280;19763;55.798;37.782;2023-05-23T08:02:01;152068.16;;;19.05;68.06
33422;BME280;19763;55.798;37.782;2023-05-23T08:04:27;152087.47;;;19.12;67.95
33422;BME280;19763;55.798;37.782;2023-05-23T08:06:53;152113.34;;;19.23;67.82
33422;BME280;19763;55.798;37.782;2023-05-23T08:09:20;152101.69;;;19.18;67.87
33422;BME280;19763;55.798;37.782;2023-05-23T08:11:46;152118.47;;;19.25;67.05
33422;BME280;19763;55.798;37.782;2023-05-23T08:14:11;152077.22;;;19.08;67.18
33422;BME280;19763;55.798;37.782;2023-05-23T08:16:37;152131.41;;;19.30;67.84
33422;BME280;19763;55.798;37.782;2023-05-23T08:19:03;152154.59;;;19.39;67.66
33422;BME280;19763;55.798;37.782;2023-05-23T08:21:28;152010.06;;;18.82;69.16
33422;BME280;19763;55.798;37.782;2023-05-23T08:23:54;152046.22;;;18.96;69.38
33422;BME280;19763;55.798;37.782;2023-05-23T08:26:19;152066.88;;;19.04;69.57
33422;BME280;19763;55.798;37.782;2023-05-23T08:28:46;152011.31;;;18.82;69.21
33422;BME280;19763;55.798;37.782;2023-05-23T08:31:11;151968.75;;;18.65;69.21
33422;BME280;19763;55.798;37.782;2023-05-23T08:33:37;151944.22;;;18.55;69.47
33422;BME280;19763;55.798;37.782;2023-05-23T08:36:02;151928.78;;;18.49;70.00
33422;BME280;19763;55.798;37.782;2023-05-23T08:38:28;151973.94;;;18.67;71.10
33422;BME280;19763;55.798;37.782;2023-05-23T08:40:55;151910.72;;;18.42;70.67
33422;BME280;19763;55.798;37.782;2023-05-23T08:43:20;151962.28;;;18.62;70.20
33422;BME280;19763;55.798;37.782;2023-05-23T08:45:47;151940.38;;;18.54;71.10
33422;BME280;19763;55.798;37.782;2023-05-23T08:48:18;151966.19;;;18.64;71.07
33422;BME280;19763;55.798;37.782;2023-05-23T08:50:46;151912.00;;;18.42;71.19
33422;BME280;19763;55.798;37.782;2023-05-23T08:53:16;151869.41;;;18.25;72.54
33422;BME280;19763;55.798;37.782;2023-05-23T08:55:48;151872.00;;;18.26;71.76
33422;BME280;19763;55.798;37.782;2023-05-23T08:58:18;151842.38;;;18.15;72.77
33422;BME280;19763;55.798;37.782;2023-05-23T09:00:46;151803.69;;;17.99;74.31
33422;BME280;19763;55.798;37.782;2023-05-23T09:03:12;151842.38;;;18.15;74.39
33422;BME280;19763;55.798;37.782;2023-05-23T09:05:38;151786.91;;;17.92;75.38
33422;BME280;19763;55.798;37.782;2023-05-23T09:08:04;151802.41;;;17.99;76.53
33422;BME280;19763;55.798;37.782;2023-05-23T09:10:30;151824.31;;;18.07;76.64
33422;BME280;19763;55.798;37.782;2023-05-23T09:12:55;151764.94;;;17.84;77.72
33422;BME280;19763;55.798;37.782;2023-05-23T09:15:23;151766.25;;;17.84;77.91
33422;BME280;19763;55.798;37.782;2023-05-23T09:17:48;151741.75;;;17.74;78.28
33422;BME280;19763;55.798;37.782;2023-05-23T09:20:16;151664.41;;;17.43;80.21
33422;BME280;19763;55.798;37.782;2023-05-23T09:22:48;151669.53;;;17.46;80.29
33422;BME280;19763;55.798;37.782;2023-05-23T09:25:14;151717.25;;;17.65;79.71
33422;BME280;19763;55.798;37.782;2023-05-23T09:27:40;151664.41;;;17.43;80.60
33422;BME280;19763;55.798;37.782;2023-05-23T09:30:07;151705.66;;;17.60;80.41
33422;BME280;19763;55.798;37.782;2023-05-23T09:32:33;151699.22;;;17.57;81.58
33422;BME280;19763;55.798;37.782;2023-05-23T09:35:06;151726.25;;;17.68;80.10
33422;BME280;19763;55.798;37.782;2023-05-23T09:37:38;151690.16;;;17.54;80.15
33422;BME280;19763;55.798;37.782;2023-05-23T09:40:12;151754.63;;;17.80;80.10
33422;BME280;19763;55.798;37.782;2023-05-23T09:42:42;151764.94;;;17.84;80.35
33422;BME280;19763;55.798;37.782;2023-05-23T09:45:09;151780.41;;;17.90;79.70
33422;BME280;19763;55.798;37.782;2023-05-23T09:47:35;151758.47;;;17.81;79.36
33422;BME280;19763;55.798;37.782;2023-05-23T09:50:00;151748.16;;;17.77;80.09
33422;BME280;19763;55.798;37.782;2023-05-23T09:52:26;151713.38;;;17.63;79.36
33422;BME280;19763;55.798;37.782;2023-05-23T09:54:53;151736.56;;;17.72;80.06
33422;BME280;19763;55.798;37.782;2023-05-23T09:57:20;151690.16;;;17.54;80.82
33422;BME280;19763;55.798;37.782;2023-05-23T09:59:51;151700.47;;;17.58;81.50
33422;BME280;19763;55.798;37.782;2023-05-23T10:02:53;151752.06;;;17.79;81.35
33422;BME280;19763;55.798;37.782;2023-05-23T10:05:30;151752.06;;;17.79;80.79
33422;BME280;19763;55.798;37.782;2023-05-23T10:08:00;151775.25;;;17.88;81.12
33422;BME280;19763;55.798;37.782;2023-05-23T10:10:30;151799.81;;;17.98;81.08
33422;BME280;19763;55.798;37.782;2023-05-23T10:12:57;151679.84;;;17.50;83.28
33422;BME280;19763;55.798;37.782;2023-05-23T10:15:26;151690.16;;;17.54;83.36
33422;BME280;19763;55.798;37.782;2023-05-23T10:18:11;151664.41;;;17.43;82.42
33422;BME280;19763;55.798;37.782;2023-05-23T10:20:44;151616.72;;;17.24;82.88
33422;BME280;19763;55.798;37.782;2023-05-23T10:23:12;151664.41;;;17.43;82.85
33422;BME280;19763;55.798;37.782;2023-05-23T10:25:38;151620.59;;;17.26;83.42
33422;BME280;19763;55.798;37.782;2023-05-23T10:28:05;151705.66;;;17.60;83.02
33422;BME280;19763;55.798;37.782;2023-05-23T10:30:31;151706.94;;;17.60;83.38
33422;BME280;19763;55.798;37.782;2023-05-23T10:32:59;151708.22;;;17.61;82.90
33422;BME280;19763;55.798;37.782;2023-05-23T10:41:00;151660.53;;;17.42;83.09
33422;BME280;19763;55.798;37.782;2023-05-23T10:43:35;151688.91;;;17.53;84.61
33422;BME280;19763;55.798;37.782;2023-05-23T10:46:08;151667.00;;;17.45;83.91
33422;BME280;19763;55.798;37.782;2023-05-23T10:48:35;151638.63;;;17.33;84.12
33422;BME280;19763;55.798;37.782;2023-05-23T10:51:07;151624.44;;;17.28;83.86
33422;BME280;19763;55.798;37.782;2023-05-23T10:53:46;151673.41;;;17.47;84.76
33422;BME280;19763;55.798;37.782;2023-05-23T10:56:22;151686.31;;;17.52;85.11
33422;BME280;19763;55.798;37.782;2023-05-23T10:58:55;151624.44;;;17.28;85.88
33422;BME280;19763;55.798;37.782;2023-05-23T11:01:22;151599.97;;;17.18;86.42
33422;BME280;19763;55.798;37.782;2023-05-23T11:03:49;151623.13;;;17.27;86.86
33422;BME280;19763;55.798;37.782;2023-05-23T11:06:38;151601.22;;;17.18;87.04
33422;BME280;19763;55.798;37.782;2023-05-23T11:09:15;151615.41;;;17.24;87.52
33422;BME280;19763;55.798;37.782;2023-05-23T11:14:50;151580.59;;;17.10;88.19
33422;BME280;19763;55.798;37.782;2023-05-23T11:17:23;151550.97;;;16.98;89.28
33422;BME280;19763;55.798;37.782;2023-05-23T11:20:07;151561.28;;;17.02;88.56
33422;BME280;19763;55.798;37.782;2023-05-23T11:22:34;151597.38;;;17.17;88.02
33422;BME280;19763;55.798;37.782;2023-05-23T11:25:05;151614.13;;;17.23;88.01
33422;BME280;19763;55.798;37.782;2023-05-23T11:27:39;151624.44;;;17.28;88.66
33422;BME280;19763;55.798;37.782;2023-05-23T11:30:16;151594.78;;;17.16;88.50
33422;BME280;19763;55.798;37.782;2023-05-23T11:32:49;151645.09;;;17.36;87.56
33422;BME280;19763;55.798;37.782;2023-05-23T11:35:15;151636.03;;;17.32;87.96
33422;BME280;19763;55.798;37.782;2023-05-23T11:37:42;151669.53;;;17.46;87.43
33422;BME280;19763;55.798;37.782;2023-05-23T11:40:30;151705.66;;;17.60;87.67
33422;BME280;19763;55.798;37.782;2023-05-23T11:42:57;151645.09;;;17.36;87.57
33422;BME280;19763;55.798;37.782;2023-05-23T11:45:24;151687.56;;;17.53;87.51
33422;BME280;19763;55.798;37.782;2023-05-23T11:47:51;151717.25;;;17.65;86.25
33422;BME280;19763;55.798;37.782;2023-05-23T11:50:17;151710.81;;;17.62;86.31
33422;BME280;19763;55.798;37.782;2023-05-23T11:52:44;151736.56;;;17.72;87.03
33422;BME280;19763;55.798;37.782;2023-05-23T11:55:24;151722.38;;;17.67;86.27
33422;BME280;19763;55.798;37.782;2023-05-23T11:57:50;151753.34;;;17.79;87.14
33422;BME280;19763;55.798;37.782;2023-05-23T12:00:17;151794.63;;;17.96;86.30
33422;BME280;19763;55.798;37.782;2023-05-23T12:02:44;151812.72;;;18.03;86.62
33422;BME280;19763;55.798;37.782;2023-05-23T12:05:13;151834.63;;;18.11;85.46
33422;BME280;19763;55.798;37.782;2023-05-23T12:07:44;151856.56;;;18.20;84.21
33422;BME280;19763;55.798;37.782;2023-05-23T12:10:10;151873.28;;;18.27;84.67
33422;BME280;19763;55.798;37.782;2023-05-23T12:12:39;151878.47;;;18.29;83.46
33422;BME280;19763;55.798;37.782;2023-05-23T12:15:05;151886.19;;;18.32;82.59
33422;BME280;19763;55.798;37.782;2023-05-23T12:17:31;151908.13;;;18.41;82.48
33422;BME280;19763;55.798;37.782;2023-05-23T12:19:57;151886.19;;;18.32;78.98
33422;BME280;19763;55.798;37.782;2023-05-23T12:22:23;151918.44;;;18.45;80.70
33422;BME280;19763;55.798;37.782;2023-05-23T12:24:52;151919.78;;;18.45;79.36
33422;BME280;19763;55.798;37.782;2023-05-23T12:27:18;151942.97;;;18.55;79.59
33422;BME280;19763;55.798;37.782;2023-05-23T12:29:49;151931.38;;;18.50;79.38
33422;BME280;19763;55.798;37.782;2023-05-23T12:32:18;151973.94;;;18.67;79.93
33422;BME280;19763;55.798;37.782;2023-05-23T12:34:43;151966.19;;;18.64;79.67
33422;BME280;19763;55.798;37.782;2023-05-23T12:37:12;151968.75;;;18.65;79.54
33422;BME280;19763;55.798;37.782;2023-05-23T12:39:38;151961.03;;;18.62;79.52
33422;BME280;19763;55.798;37.782;2023-05-23T12:42:08;151999.72;;;18.77;79.50
33422;BME280;19763;55.798;37.782;2023-05-23T12:44:34;152004.88;;;18.79;80.48
33422;BME280;19763;55.798;37.782;2023-05-23T12:47:01;151968.75;;;18.65;80.47
33422;BME280;19763;55.798;37.782;2023-05-23T12:49:27;151997.13;;;18.76;79.51
33422;BME280;19763;55.798;37.782;2023-05-23T12:51:53;152012.66;;;18.83;78.86
33422;BME280;19763;55.798;37.782;2023-05-23T12:54:18;151990.69;;;18.74;77.59
33422;BME280;19763;55.798;37.782;2023-05-23T12:56:44;152004.88;;;18.79;78.38